Time;durP1;ratioP1;P1;durP2;ratioP2;P2;SDS_P1;SDS_P2;PMS_P1;PMS_P2;Temp;Humidity;BMP_temperature;BMP_pressure;BME280_temperature;BME280_humidity;BME280_pressure;Samples;Min_cycle;Max_cycle;Signal;HPM_P1;HPM_P2
2024/01/17 00:00:36;;;;;;;7.00;2.30;;;29.20;99.90;;;;;;4956180;28;20565;-75
2024/01/17 00:03:04;;;;;;;7.83;2.63;;;29.30;99.90;;;;;;4956714;28;20306;-73
2024/01/17 00:05:31;;;;;;;9.23;2.50;;;29.50;99.90;;;;;;4956783;28;20557;-74
2024/01/17 00:07:58;;;;;;;5.73;2.20;;;29.90;99.90;;;;;;4954969;29;20819;-75
2024/01/17 00:10:26;;;;;;;10.50;2.35;;;29.80;99.90;;;;;;4970945;28;20187;-74
2024/01/17 00:12:53;;;;;;;8.70;3.17;;;30.20;99.90;;;;;;4971299;28;20211;-73
2024/01/17 00:18:42;;;;;;;7.10;2.40;;;30.60;99.90;;;;;;4959345;28;20732;-74
2024/01/17 00:21:09;;;;;;;3.97;1.90;;;30.80;99.90;;;;;;4976196;28;20233;-74
2024/01/17 00:23:37;;;;;;;13.17;2.67;;;30.60;99.90;;;;;;4960796;28;20208;-74
2024/01/17 00:29:26;;;;;;;9.70;3.28;;;29.70;99.90;;;;;;4956915;29;20767;-74
2024/01/17 00:31:53;;;;;;;3.43;1.60;;;30.00;99.90;;;;;;4961437;28;20549;-75
2024/01/17 00:34:21;;;;;;;7.70;2.30;;;30.10;99.90;;;;;;4970680;28;20175;-75
2024/01/17 00:36:48;;;;;;;13.47;4.10;;;30.20;99.90;;;;;;4956975;29;20200;-74
2024/01/17 00:39:16;;;;;;;6.37;3.00;;;29.90;99.90;;;;;;4962340;28;20188;-74
2024/01/17 00:41:43;;;;;;;17.57;5.03;;;29.60;99.90;;;;;;4959645;28;20531;-75
2024/01/17 00:44:16;;;;;;;4.47;1.60;;;29.90;99.90;;;;;;4966850;28;20673;-75
2024/01/17 00:46:44;;;;;;;7.13;1.73;;;29.70;99.90;;;;;;4971709;28;20187;-75
2024/01/17 00:49:11;;;;;;;7.83;1.97;;;30.20;99.90;;;;;;4967126;28;20660;-75
2024/01/17 00:51:39;;;;;;;4.83;1.60;;;30.30;99.90;;;;;;4975166;28;20667;-75
2024/01/17 00:54:06;;;;;;;2.97;1.50;;;30.00;99.90;;;;;;4965344;28;20538;-75
2024/01/17 00:56:35;;;;;;;6.27;1.93;;;29.70;99.90;;;;;;4961743;28;20180;-75
2024/01/17 00:59:03;;;;;;;4.73;1.87;;;29.70;99.90;;;;;;4957237;28;20176;-74
2024/01/17 01:01:30;;;;;;;6.50;1.70;;;29.40;99.90;;;;;;4957346;28;20176;-75
2024/01/17 01:03:58;;;;;;;6.23;2.03;;;29.50;99.90;;;;;;4956929;28;20708;-75
2024/01/17 01:06:25;;;;;;;2.77;1.33;;;29.30;99.90;;;;;;4957692;28;20195;-74
2024/01/17 01:08:52;;;;;;;8.43;2.43;;;29.30;99.90;;;;;;4958788;28;20179;-75
2024/01/17 01:24:49;;;;;;;9.67;1.73;;;29.50;99.90;;;;;;4973818;29;20206;-71
2024/01/17 01:27:16;;;;;;;3.77;1.50;;;29.20;99.90;;;;;;4960084;29;20175;-71
2024/01/17 01:29:43;;;;;;;4.57;1.87;;;29.20;99.90;;;;;;4955546;29;20246;-72
2024/01/17 01:32:11;;;;;;;8.33;1.43;;;29.50;99.90;;;;;;4961542;29;20633;-71
2024/01/17 01:34:38;;;;;;;1.97;1.10;;;29.80;99.90;;;;;;4957986;29;20187;-71
2024/01/17 01:37:05;;;;;;;4.83;1.97;;;30.00;99.90;;;;;;4961657;28;20191;-72
2024/01/17 01:39:33;;;;;;;4.57;1.30;;;30.10;99.90;;;;;;4956598;28;20180;-72
2024/01/17 01:42:00;;;;;;;4.60;1.40;;;29.90;99.90;;;;;;4956773;28;20188;-72
2024/01/17 01:44:27;;;;;;;6.33;1.40;;;29.80;99.90;;;;;;4956281;28;20302;-72
2024/01/17 01:46:55;;;;;;;8.93;1.53;;;30.00;99.90;;;;;;4956391;28;20537;-72
2024/01/17 01:49:23;;;;;;;4.23;1.40;;;30.10;99.90;;;;;;4956284;28;20194;-72
2024/01/17 01:51:51;;;;;;;2.63;1.10;;;29.90;99.90;;;;;;4956500;28;20180;-72
2024/01/17 01:54:21;;;;;;;6.63;1.37;;;30.10;99.90;;;;;;4956530;28;20240;-72
2024/01/17 01:56:49;;;;;;;6.47;1.90;;;30.20;99.90;;;;;;4956612;28;20186;-72
2024/01/17 01:59:17;;;;;;;9.10;2.67;;;30.10;99.90;;;;;;4956506;28;20563;-72
2024/01/17 02:01:45;;;;;;;3.53;1.47;;;30.10;99.90;;;;;;4956377;28;20172;-72
2024/01/17 02:04:13;;;;;;;5.37;1.70;;;30.00;99.90;;;;;;4960893;28;20219;-72
2024/01/17 02:06:42;;;;;;;4.67;1.70;;;29.90;99.90;;;;;;4957535;28;20677;-72
2024/01/17 02:09:10;;;;;;;6.77;1.90;;;29.70;99.90;;;;;;4957706;28;20263;-71
2024/01/17 02:11:38;;;;;;;3.90;1.40;;;29.80;99.90;;;;;;4957241;28;20236;-72
2024/01/17 02:14:05;;;;;;;2.53;1.50;;;29.70;99.90;;;;;;4956172;28;20211;-72
2024/01/17 02:16:33;;;;;;;4.77;1.60;;;29.80;99.90;;;;;;4956406;29;20192;-73
2024/01/17 02:19:01;;;;;;;5.27;1.47;;;29.60;99.90;;;;;;4956013;28;20231;-72
2024/01/17 02:21:29;;;;;;;4.80;1.73;;;29.70;99.90;;;;;;4955962;28;20246;-72
2024/01/17 02:24:15;;;;;;;4.70;2.10;;;29.70;99.90;;;;;;4955896;28;20733;-71
2024/01/17 02:26:42;;;;;;;3.97;2.03;;;29.30;99.90;;;;;;4954672;29;20180;-71
2024/01/17 02:29:10;;;;;;;6.27;2.40;;;29.30;99.90;;;;;;4955725;28;20180;-72
2024/01/17 02:31:38;;;;;;;4.03;2.10;;;29.60;99.90;;;;;;4955972;28;20225;-72
2024/01/17 02:34:05;;;;;;;3.67;1.50;;;29.70;99.90;;;;;;4955848;28;20184;-71
2024/01/17 02:36:33;;;;;;;2.83;1.60;;;29.90;99.90;;;;;;4955595;28;20611;-72
2024/01/17 02:39:00;;;;;;;5.40;2.20;;;30.00;99.90;;;;;;4955762;28;20311;-72
2024/01/17 02:41:27;;;;;;;5.03;2.47;;;30.00;99.90;;;;;;4956663;28;20176;-73
2024/01/17 02:43:54;;;;;;;5.07;1.70;;;30.20;99.90;;;;;;4955342;28;20302;-71
2024/01/17 02:46:26;;;;;;;3.63;1.43;;;30.30;99.90;;;;;;4955512;28;20183;-71
2024/01/17 02:48:53;;;;;;;4.70;2.00;;;30.50;99.90;;;;;;4957180;28;20234;-72
2024/01/17 02:51:20;;;;;;;4.83;1.70;;;30.70;99.90;;;;;;4963901;28;20187;-69
2024/01/17 02:53:48;;;;;;;3.70;1.63;;;30.70;99.90;;;;;;4961733;28;20184;-66
2024/01/17 02:56:16;;;;;;;4.37;1.60;;;30.60;99.90;;;;;;4955015;28;20571;-67
2024/01/17 02:58:44;;;;;;;1.80;1.17;;;30.80;99.90;;;;;;4955335;28;20187;-67
2024/01/17 03:01:14;;;;;;;4.07;1.10;;;31.40;99.90;;;;;;4955374;28;20693;-71
2024/01/17 03:03:42;;;;;;;3.60;1.53;;;31.40;99.90;;;;;;4955372;28;20216;-66
2024/01/17 03:06:09;;;;;;;4.20;1.60;;;31.30;99.90;;;;;;4955169;28;20614;-71
2024/01/17 03:08:36;;;;;;;3.33;1.45;;;31.10;99.90;;;;;;4955607;28;20215;-66
2024/01/17 03:11:04;;;;;;;4.93;1.45;;;31.40;99.90;;;;;;4955203;29;20176;-68
2024/01/17 03:13:31;;;;;;;5.20;1.50;;;31.30;99.90;;;;;;4955654;28;20532;-71
2024/01/17 03:15:58;;;;;;;3.40;1.73;;;31.20;99.90;;;;;;4965827;28;20198;-70
2024/01/17 03:18:26;;;;;;;4.85;1.88;;;30.90;99.90;;;;;;4969214;28;20314;-72
2024/01/17 03:20:53;;;;;;;3.80;1.35;;;31.00;99.90;;;;;;4974536;28;20179;-70
2024/01/17 03:23:21;;;;;;;3.42;1.67;;;31.00;99.90;;;;;;4956722;28;20215;-71
2024/01/17 03:25:49;;;;;;;3.08;1.40;;;31.10;99.90;;;;;;4964381;28;20266;-70
2024/01/17 03:28:16;;;;;;;3.13;1.75;;;31.10;99.90;;;;;;4968619;28;20242;-71
2024/01/17 03:30:44;;;;;;;3.42;1.60;;;31.00;99.90;;;;;;4959132;28;20255;-72
2024/01/17 03:33:11;;;;;;;5.22;1.77;;;31.10;99.90;;;;;;4958734;28;20190;-70
2024/01/17 03:35:38;;;;;;;4.72;1.50;;;31.30;99.90;;;;;;4959195;28;20196;-69
2024/01/17 03:38:06;;;;;;;3.75;1.60;;;31.40;99.90;;;;;;4958909;28;20219;-70
2024/01/17 03:40:33;;;;;;;5.65;1.90;;;31.40;99.90;;;;;;4962542;28;20234;-67
2024/01/17 03:43:00;;;;;;;9.47;2.03;;;31.20;99.90;;;;;;4960810;28;20298;-68
2024/01/17 03:45:28;;;;;;;4.32;1.77;;;30.90;99.90;;;;;;4974626;28;20663;-72
2024/01/17 03:47:55;;;;;;;3.90;1.63;;;30.40;99.90;;;;;;4975751;28;20604;-67
2024/01/17 03:50:24;;;;;;;7.60;1.67;;;30.30;99.90;;;;;;4978001;28;20234;-67
2024/01/17 03:52:51;;;;;;;4.60;1.73;;;30.30;99.90;;;;;;4977284;28;20221;-69
2024/01/17 03:55:18;;;;;;;1.83;1.20;;;29.70;99.90;;;;;;4945436;28;20657;-68
2024/01/17 03:57:46;;;;;;;4.17;1.80;;;29.70;99.90;;;;;;4956705;28;20561;-71
2024/01/17 04:00:14;;;;;;;5.67;1.60;;;29.30;99.90;;;;;;4971602;28;20218;-71
2024/01/17 04:02:42;;;;;;;6.70;1.97;;;28.90;99.90;;;;;;4975766;28;20177;-73
2024/01/17 04:05:09;;;;;;;2.13;1.70;;;28.70;99.90;;;;;;4968659;28;20194;-71
2024/01/17 04:07:36;;;;;;;3.97;1.90;;;28.60;99.90;;;;;;4957630;28;20191;-70
2024/01/17 04:10:05;;;;;;;8.53;2.70;;;28.50;99.90;;;;;;4956426;28;20176;-70
2024/01/17 04:12:32;;;;;;;4.77;2.20;;;28.40;99.90;;;;;;4956591;28;20180;-71
2024/01/17 04:15:00;;;;;;;2.87;1.97;;;28.30;99.90;;;;;;4956775;28;20557;-71
2024/01/17 04:17:27;;;;;;;3.17;2.17;;;28.20;99.90;;;;;;4956270;28;20278;-67
2024/01/17 04:19:54;;;;;;;6.43;2.27;;;28.10;99.90;;;;;;4956598;28;20180;-69
2024/01/17 04:22:22;;;;;;;7.53;2.40;;;28.00;99.90;;;;;;4956624;28;20182;-67
2024/01/17 04:24:49;;;;;;;4.33;2.70;;;28.00;99.90;;;;;;4960430;28;20681;-66
2024/01/17 04:27:16;;;;;;;5.87;2.87;;;28.00;99.90;;;;;;4975726;28;20586;-66
2024/01/17 04:29:43;;;;;;;9.27;3.27;;;28.00;99.90;;;;;;4975154;28;20692;-67
2024/01/17 04:35:33;;;;;;;5.50;2.50;;;27.90;99.90;;;;;;4971828;28;20354;-66
2024/01/17 04:38:00;;;;;;;7.73;2.90;;;27.90;99.90;;;;;;4971547;28;20698;-66
2024/01/17 04:40:28;;;;;;;4.90;2.53;;;27.80;99.90;;;;;;4958354;28;20184;-67
2024/01/17 04:42:55;;;;;;;4.73;2.93;;;27.60;99.90;;;;;;4958557;28;20295;-66
2024/01/17 04:45:22;;;;;;;6.83;2.67;;;27.60;99.90;;;;;;4967972;28;20183;-65
2024/01/17 04:47:50;;;;;;;5.83;3.07;;;27.50;99.90;;;;;;4975530;28;20267;-69
2024/01/17 04:50:17;;;;;;;7.23;2.90;;;27.50;99.90;;;;;;4970757;28;20180;-66
2024/01/17 04:52:45;;;;;;;7.27;3.17;;;27.50;99.90;;;;;;4956153;28;20180;-67
2024/01/17 04:55:15;;;;;;;6.73;2.73;;;27.40;99.90;;;;;;4954604;29;20215;-71
2024/01/17 04:57:43;;;;;;;5.23;2.53;;;27.20;99.90;;;;;;4956055;28;20266;-71
2024/01/17 05:00:12;;;;;;;6.07;2.87;;;27.10;99.90;;;;;;4955732;28;20722;-66
2024/01/17 05:02:39;;;;;;;9.93;4.10;;;27.00;99.90;;;;;;4955836;28;20176;-67
2024/01/17 05:05:07;;;;;;;4.83;3.10;;;27.10;99.90;;;;;;4955752;28;20198;-68
2024/01/17 05:07:34;;;;;;;4.43;2.70;;;27.20;99.90;;;;;;4956019;28;20206;-67
2024/01/17 05:10:02;;;;;;;10.30;3.50;;;27.20;99.90;;;;;;4956600;28;20232;-67
2024/01/17 05:12:29;;;;;;;8.43;3.03;;;27.10;99.90;;;;;;4956956;28;20192;-67
2024/01/17 05:14:56;;;;;;;6.83;3.10;;;26.90;99.90;;;;;;4968178;28;20649;-74
2024/01/17 05:17:23;;;;;;;7.00;3.20;;;26.90;99.90;;;;;;4960905;28;20661;-71
2024/01/17 05:19:51;;;;;;;5.67;3.40;;;26.90;99.90;;;;;;4955735;29;20537;-71
2024/01/17 05:22:18;;;;;;;6.43;3.13;;;26.90;99.90;;;;;;4957199;29;20188;-72
2024/01/17 05:24:45;;;;;;;4.63;3.10;;;26.70;99.90;;;;;;4956932;28;20223;-71
2024/01/17 05:27:13;;;;;;;7.93;4.43;;;26.50;99.90;;;;;;4957097;29;20222;-68
2024/01/17 05:29:43;;;;;;;5.97;3.80;;;26.40;99.90;;;;;;4955330;28;20646;-69
2024/01/17 05:32:11;;;;;;;12.10;4.50;;;26.40;99.90;;;;;;4957011;28;20175;-69
2024/01/17 05:34:38;;;;;;;12.83;4.17;;;26.30;99.90;;;;;;4956700;28;20192;-71
2024/01/17 05:37:09;;;;;;;6.93;3.60;;;26.20;99.90;;;;;;4957003;29;20205;-69
2024/01/17 05:39:37;;;;;;;10.40;4.53;;;26.10;99.90;;;;;;4957417;29;20180;-69
2024/01/17 05:42:04;;;;;;;6.93;3.93;;;26.10;99.90;;;;;;4956653;29;20172;-69
2024/01/17 05:44:31;;;;;;;9.40;4.10;;;26.20;99.90;;;;;;4956571;28;20208;-68
2024/01/17 05:46:59;;;;;;;7.83;4.30;;;26.00;99.90;;;;;;4956656;29;20271;-69
2024/01/17 05:49:26;;;;;;;5.00;4.03;;;25.90;99.90;;;;;;4955824;28;20203;-71
2024/01/17 05:51:54;;;;;;;8.73;4.20;;;25.90;99.90;;;;;;4956662;29;20259;-71
2024/01/17 05:54:21;;;;;;;8.13;4.17;;;25.90;99.90;;;;;;4956373;29;20180;-72
2024/01/17 05:56:48;;;;;;;8.27;4.83;;;25.90;99.90;;;;;;4956600;29;20266;-69
2024/01/17 05:59:16;;;;;;;8.57;5.17;;;25.80;99.90;;;;;;4956404;29;20207;-71
2024/01/17 06:01:43;;;;;;;7.83;5.07;;;25.70;99.90;;;;;;4956393;28;20185;-71
2024/01/17 06:04:10;;;;;;;10.17;5.20;;;25.60;99.90;;;;;;4956313;29;20626;-71
2024/01/17 06:06:37;;;;;;;10.87;5.47;;;25.70;99.90;;;;;;4956554;28;20615;-68
2024/01/17 06:09:07;;;;;;;13.70;6.07;;;25.70;99.90;;;;;;4956150;29;20180;-69
2024/01/17 06:11:35;;;;;;;11.80;6.70;;;25.70;99.90;;;;;;4956100;29;20266;-68
2024/01/17 06:14:03;;;;;;;15.43;7.57;;;25.60;99.90;;;;;;4955967;29;20180;-68
2024/01/17 06:16:31;;;;;;;12.53;7.10;;;25.60;99.90;;;;;;4955869;29;20610;-69
2024/01/17 06:18:59;;;;;;;10.73;7.60;;;25.40;99.90;;;;;;4956227;28;20175;-68
2024/01/17 06:21:26;;;;;;;15.33;7.93;;;25.30;99.90;;;;;;4956058;29;20180;-71
2024/01/17 06:23:54;;;;;;;11.53;7.27;;;25.20;99.90;;;;;;4955734;29;20660;-69
2024/01/17 06:26:22;;;;;;;10.40;7.57;;;25.00;99.90;;;;;;4955776;28;20176;-71
2024/01/17 06:28:50;;;;;;;11.57;7.43;;;25.00;99.90;;;;;;4955963;28;20191;-68
2024/01/17 06:31:25;;;;;;;12.13;7.53;;;25.00;99.90;;;;;;4954578;28;20228;-68
2024/01/17 06:33:56;;;;;;;9.77;7.73;;;25.00;99.90;;;;;;4955681;29;20179;-72
2024/01/17 06:36:24;;;;;;;9.60;7.13;;;24.90;99.90;;;;;;4961359;29;20179;-68
2024/01/17 06:38:52;;;;;;;11.20;8.00;;;24.90;99.90;;;;;;4961494;29;20223;-68
2024/01/17 06:41:20;;;;;;;11.50;7.20;;;24.80;99.90;;;;;;4961233;29;20281;-69
2024/01/17 06:43:47;;;;;;;12.90;7.70;;;24.80;99.90;;;;;;4955684;28;20324;-73
2024/01/17 06:46:15;;;;;;;11.47;7.20;;;24.80;99.90;;;;;;4955646;29;20182;-69
2024/01/17 06:48:42;;;;;;;17.37;6.83;;;25.00;99.90;;;;;;4955863;28;20195;-70
2024/01/17 06:51:09;;;;;;;11.10;7.80;;;25.00;99.90;;;;;;4955542;28;20184;-72
2024/01/17 06:53:37;;;;;;;10.43;7.87;;;25.10;99.90;;;;;;4955304;29;20191;-72
2024/01/17 06:56:05;;;;;;;9.53;6.73;;;25.10;99.90;;;;;;4955521;29;20176;-72
2024/01/17 06:58:32;;;;;;;10.33;6.50;;;25.10;99.90;;;;;;4955354;29;20235;-72
2024/01/17 07:01:00;;;;;;;12.47;6.90;;;25.10;99.90;;;;;;4955403;28;20266;-69
2024/01/17 07:03:27;;;;;;;9.83;6.60;;;25.10;99.90;;;;;;4954114;29;20266;-72
2024/01/17 07:05:54;;;;;;;8.90;6.10;;;25.10;99.90;;;;;;4957376;29;20214;-70
2024/01/17 07:08:23;;;;;;;11.87;6.40;;;25.10;99.90;;;;;;4962976;29;20340;-73
2024/01/17 07:10:50;;;;;;;9.87;6.20;;;25.00;99.90;;;;;;4957786;29;20186;-74
2024/01/17 07:13:18;;;;;;;8.60;6.27;;;25.00;99.90;;;;;;4955278;29;20227;-68
2024/01/17 07:15:45;;;;;;;8.47;5.80;;;25.00;99.90;;;;;;4955362;29;20175;-69
2024/01/17 07:18:12;;;;;;;6.57;3.63;;;25.00;99.90;;;;;;4955355;29;20180;-68
2024/01/17 07:20:39;;;;;;;4.07;3.17;;;24.80;99.90;;;;;;4955418;29;20175;-72
2024/01/17 07:23:10;;;;;;;14.30;3.60;;;24.70;99.90;;;;;;4955035;29;20212;-71
2024/01/17 07:25:40;;;;;;;3.60;2.90;;;24.60;99.90;;;;;;4955197;28;20180;-70
2024/01/17 07:28:08;;;;;;;3.87;2.87;;;24.60;99.90;;;;;;4955355;29;20588;-71
2024/01/17 07:30:35;;;;;;;4.10;3.30;;;24.70;99.90;;;;;;4954908;29;20231;-68
2024/01/17 07:33:03;;;;;;;5.87;3.20;;;24.80;99.90;;;;;;4955410;28;20180;-68
2024/01/17 07:35:30;;;;;;;6.03;4.47;;;24.80;99.90;;;;;;4954884;28;20243;-68
2024/01/17 07:37:58;;;;;;;6.13;4.80;;;24.90;99.90;;;;;;4955127;28;20184;-68
2024/01/17 07:40:26;;;;;;;7.43;4.97;;;25.00;99.90;;;;;;4954969;28;20184;-67
2024/01/17 07:42:53;;;;;;;7.57;5.27;;;25.00;99.90;;;;;;4954976;29;20192;-68
2024/01/17 07:52:05;;;;;;;8.83;6.07;;;25.00;99.90;;;;;;4954387;29;20188;-71
2024/01/17 07:54:33;;;;;;;7.60;5.63;;;24.90;99.90;;;;;;4954923;28;20194;-68
2024/01/17 07:57:01;;;;;;;8.37;5.67;;;24.90;99.90;;;;;;4954925;28;20184;-68
2024/01/17 07:59:28;;;;;;;7.83;6.20;;;24.90;99.90;;;;;;4955026;28;20231;-68
2024/01/17 08:01:56;;;;;;;8.33;6.47;;;24.90;99.90;;;;;;4954700;29;20188;-68
2024/01/17 08:04:24;;;;;;;9.97;6.83;;;24.90;99.90;;;;;;4954655;29;20227;-68
2024/01/17 08:06:51;;;;;;;9.87;6.93;;;25.00;99.90;;;;;;4954962;28;20231;-68
2024/01/17 08:09:21;;;;;;;8.43;6.57;;;24.90;99.90;;;;;;4954694;29;20210;-68
2024/01/17 08:11:53;;;;;;;10.20;6.50;;;25.00;99.90;;;;;;4954596;28;20180;-68
2024/01/17 08:14:21;;;;;;;10.30;7.20;;;25.00;99.90;;;;;;4956815;29;20175;-70
2024/01/17 08:16:50;;;;;;;9.60;6.43;;;24.90;99.90;;;;;;4958547;28;20176;-67
2024/01/17 08:19:18;;;;;;;11.90;6.70;;;24.90;99.90;;;;;;4958538;28;20187;-70
2024/01/17 08:21:49;;;;;;;11.27;6.07;;;24.90;99.90;;;;;;4958252;28;20249;-71
2024/01/17 08:24:16;;;;;;;9.07;6.20;;;24.80;99.90;;;;;;4958165;28;20207;-70
2024/01/17 08:26:44;;;;;;;9.67;7.07;;;24.80;99.90;;;;;;4958397;28;20587;-71
2024/01/17 08:29:16;;;;;;;9.23;6.33;;;24.70;99.90;;;;;;4958201;29;20184;-71
2024/01/17 08:31:43;;;;;;;8.73;6.70;;;24.70;99.90;;;;;;4957849;28;20235;-71
2024/01/17 08:34:11;;;;;;;10.03;7.17;;;24.80;99.90;;;;;;4957908;28;20180;-68
2024/01/17 08:36:38;;;;;;;10.93;6.63;;;24.80;99.90;;;;;;4958056;29;20187;-70
2024/01/17 08:39:06;;;;;;;14.57;7.33;;;24.70;99.90;;;;;;4958063;29;20184;-68
2024/01/17 08:41:33;;;;;;;10.50;6.93;;;24.70;99.90;;;;;;4957817;29;20192;-68
2024/01/17 08:44:04;;;;;;;11.20;7.30;;;24.60;99.90;;;;;;4957756;28;20215;-68
2024/01/17 08:46:31;;;;;;;9.90;6.73;;;24.60;99.90;;;;;;4957723;29;20181;-70
2024/01/17 08:48:59;;;;;;;11.73;5.53;;;24.60;99.90;;;;;;4957881;29;20194;-68
2024/01/17 08:51:26;;;;;;;9.07;5.23;;;24.50;99.90;;;;;;4957553;29;20172;-68
2024/01/17 08:53:53;;;;;;;9.13;4.60;;;24.50;99.90;;;;;;4957736;28;20190;-68
2024/01/17 08:56:20;;;;;;;7.43;4.37;;;24.50;99.90;;;;;;4957563;29;20656;-68
2024/01/17 08:58:48;;;;;;;10.87;5.20;;;24.60;99.90;;;;;;4957665;29;20173;-67
2024/01/17 09:01:15;;;;;;;12.03;5.00;;;24.50;99.90;;;;;;4957637;28;20187;-68
2024/01/17 09:03:43;;;;;;;12.23;4.53;;;24.50;99.90;;;;;;4957457;28;20208;-68
2024/01/17 09:06:11;;;;;;;6.47;4.03;;;24.50;99.90;;;;;;4957507;28;20541;-68
2024/01/17 09:08:38;;;;;;;8.70;4.07;;;24.50;99.90;;;;;;4957590;29;20251;-70
2024/01/17 09:11:08;;;;;;;11.07;4.43;;;24.40;99.90;;;;;;4957252;29;20664;-71
2024/01/17 09:13:35;;;;;;;8.80;4.60;;;24.50;99.90;;;;;;4957326;29;20188;-68
2024/01/17 09:16:03;;;;;;;9.67;4.83;;;24.40;99.90;;;;;;4957179;29;20199;-72
2024/01/17 09:18:30;;;;;;;9.53;4.70;;;24.40;99.90;;;;;;4957320;29;20180;-71
2024/01/17 09:20:57;;;;;;;14.03;4.87;;;24.40;99.90;;;;;;4957370;28;20176;-68
2024/01/17 09:23:25;;;;;;;10.90;5.30;;;24.50;99.90;;;;;;4956964;28;20212;-69
2024/01/17 09:25:52;;;;;;;8.23;5.10;;;24.50;99.90;;;;;;4956993;29;20634;-70
2024/01/17 09:28:19;;;;;;;11.47;5.70;;;24.40;99.90;;;;;;4957787;29;20749;-68
2024/01/17 09:30:46;;;;;;;7.70;4.23;;;;;;;;;;4956847;28;20234;-70
2024/01/17 09:33:14;;;;;;;10.03;4.37;;;24.60;99.90;;;;;;4957077;28;20183;-68
2024/01/17 09:35:44;;;;;;;7.27;4.10;;;24.40;99.90;;;;;;4957061;29;20528;-69
2024/01/17 09:38:15;;;;;;;9.27;4.57;;;24.40;99.90;;;;;;4956772;29;20188;-70
2024/01/17 09:40:43;;;;;;;7.53;3.90;;;24.30;99.90;;;;;;4956867;29;20275;-70
2024/01/17 09:43:11;;;;;;;8.17;3.97;;;24.30;99.90;;;;;;4956625;28;20204;-68
2024/01/17 09:45:40;;;;;;;6.17;3.23;;;24.40;99.90;;;;;;4956851;29;20549;-71
2024/01/17 09:48:10;;;;;;;10.47;3.50;;;24.30;99.90;;;;;;4956697;29;20176;-68
2024/01/17 09:50:37;;;;;;;6.37;2.90;;;24.30;99.90;;;;;;4956590;29;20184;-68
2024/01/17 09:53:09;;;;;;;5.63;3.17;;;24.20;99.90;;;;;;4956528;29;20280;-71
2024/01/17 09:55:39;;;;;;;8.70;2.67;;;24.20;99.90;;;;;;4956569;29;20172;-68
2024/01/17 09:58:07;;;;;;;8.60;3.23;;;24.20;99.90;;;;;;4956653;28;20208;-71
2024/01/17 10:00:36;;;;;;;5.63;2.40;;;24.20;99.90;;;;;;4956632;28;20179;-68
2024/01/17 10:03:04;;;;;;;4.70;2.30;;;24.10;99.90;;;;;;4957202;28;20251;-68
2024/01/17 10:05:35;;;;;;;7.43;2.40;;;24.10;99.90;;;;;;4960736;29;20188;-68
2024/01/17 10:08:02;;;;;;;7.20;2.80;;;24.10;99.90;;;;;;4964228;29;20207;-71
2024/01/17 10:10:30;;;;;;;7.13;2.87;;;23.90;99.90;;;;;;4960576;28;20176;-69
2024/01/17 10:12:58;;;;;;;8.03;3.57;;;24.00;99.90;;;;;;4956303;29;20267;-71
2024/01/17 10:15:25;;;;;;;5.73;2.50;;;23.90;99.90;;;;;;4956099;28;20172;-71
2024/01/17 10:17:53;;;;;;;4.87;1.80;;;23.80;99.90;;;;;;4956236;29;20184;-70
2024/01/17 10:20:20;;;;;;;3.23;1.57;;;23.50;99.90;;;;;;4955851;29;20314;-68
2024/01/17 10:22:48;;;;;;;4.17;1.60;;;23.50;99.90;;;;;;4955971;28;20199;-68
2024/01/17 10:25:16;;;;;;;2.77;1.60;;;23.50;99.90;;;;;;4955938;29;20184;-70
2024/01/17 10:27:47;;;;;;;2.60;1.70;;;23.40;99.90;;;;;;4955787;29;20211;-71
2024/01/17 10:30:14;;;;;;;4.07;1.80;;;23.50;99.90;;;;;;4955738;29;20639;-71
2024/01/17 10:32:43;;;;;;;3.30;1.80;;;23.50;99.90;;;;;;4955644;28;20181;-71
2024/01/17 10:35:12;;;;;;;2.90;1.80;;;23.50;99.90;;;;;;4955340;28;20180;-71
2024/01/17 10:37:39;;;;;;;2.73;1.93;;;23.50;99.90;;;;;;4955828;29;20191;-71
2024/01/17 10:40:13;;;;;;;3.73;1.60;;;23.40;99.90;;;;;;4954553;29;20215;-69
2024/01/17 10:42:41;;;;;;;4.67;1.83;;;23.40;99.90;;;;;;4955559;29;20191;-72
2024/01/17 10:45:08;;;;;;;2.73;1.87;;;23.40;99.90;;;;;;4955527;29;20191;-71
2024/01/17 10:47:36;;;;;;;3.63;1.40;;;23.40;99.90;;;;;;4955630;28;20187;-69
2024/01/17 10:50:05;;;;;;;3.87;1.73;;;23.40;99.90;;;;;;4955633;28;20176;-70
2024/01/17 10:52:40;;;;;;;3.93;1.53;;;23.40;99.90;;;;;;4955912;28;20186;-68
2024/01/17 10:55:10;;;;;;;2.67;1.47;;;23.40;99.90;;;;;;4961497;28;20603;-67
2024/01/17 10:57:42;;;;;;;4.00;1.73;;;23.30;99.90;;;;;;4968198;28;20839;-73
2024/01/17 11:00:16;;;;;;;5.97;1.40;;;23.30;99.90;;;;;;4955694;28;20195;-69
2024/01/17 11:06:07;;;;;;;4.93;2.10;;;23.20;99.90;;;;;;4962286;28;20199;-72
2024/01/17 11:08:36;;;;;;;2.37;1.57;;;23.20;99.90;;;;;;4962431;28;20187;-72
2024/01/17 11:11:05;;;;;;;3.60;1.80;;;23.20;99.90;;;;;;4970178;28;20520;-73
2024/01/17 11:13:34;;;;;;;3.77;2.10;;;23.20;99.90;;;;;;4972549;28;20554;-68
2024/01/17 11:16:04;;;;;;;5.03;1.60;;;23.20;99.90;;;;;;4973053;28;20214;-73
2024/01/17 11:18:35;;;;;;;4.50;1.90;;;23.20;99.90;;;;;;4972343;28;20194;-73
2024/01/17 11:21:04;;;;;;;3.17;1.57;;;23.20;99.90;;;;;;4974197;28;20187;-71
2024/01/17 11:23:46;;;;;;;2.40;1.17;;;23.30;99.90;;;;;;4970918;28;20238;-73
2024/01/17 11:26:24;;;;;;;2.63;1.70;;;23.30;99.90;;;;;;4955891;28;20188;-68
2024/01/17 11:29:09;;;;;;;3.57;1.60;;;23.30;99.90;;;;;;4954801;28;20689;-69
2024/01/17 11:31:45;;;;;;;5.90;1.60;;;23.40;99.90;;;;;;4955189;28;20188;-68
2024/01/17 11:34:13;;;;;;;3.30;1.90;;;23.40;99.90;;;;;;4954910;28;20537;-68
2024/01/17 11:36:42;;;;;;;2.17;1.87;;;23.40;99.90;;;;;;4954797;28;20179;-68
2024/01/17 11:39:19;;;;;;;5.30;2.33;;;23.30;99.90;;;;;;4954911;28;20198;-67
2024/01/17 11:41:49;;;;;;;4.93;3.00;;;23.30;99.90;;;;;;4954994;28;20215;-68
2024/01/17 11:51:04;;;;;;;7.53;3.70;;;23.30;99.90;;;;;;4968409;28;20322;-68
2024/01/17 11:57:03;;;;;;;17.07;10.17;;;23.30;99.90;;;;;;4975955;28;20197;-68
2024/01/17 11:59:34;;;;;;;10.90;7.37;;;23.30;99.90;;;;;;4958589;28;20183;-68
2024/01/17 12:02:02;;;;;;;18.13;11.50;;;23.30;99.90;;;;;;4963250;28;20266;-67
2024/01/17 12:04:30;;;;;;;13.60;7.27;;;23.40;99.90;;;;;;4967406;28;20282;-67
2024/01/17 12:06:57;;;;;;;11.70;7.30;;;23.40;99.90;;;;;;4958464;28;20191;-68
2024/01/17 12:09:27;;;;;;;9.37;6.80;;;23.40;99.90;;;;;;4963185;28;20191;-68
2024/01/17 12:11:55;;;;;;;8.93;4.80;;;23.40;99.90;;;;;;4974761;28;20175;-68
2024/01/17 12:14:22;;;;;;;7.73;5.67;;;23.40;99.90;;;;;;4961522;28;20207;-68
2024/01/17 12:16:52;;;;;;;8.30;5.50;;;23.40;99.90;;;;;;4958122;28;20254;-68
2024/01/17 12:19:19;;;;;;;11.17;4.63;;;23.40;99.90;;;;;;4958289;28;20222;-67
2024/01/17 12:21:47;;;;;;;6.93;3.97;;;23.40;99.90;;;;;;4958269;28;20657;-68
2024/01/17 12:24:15;;;;;;;6.17;4.90;;;23.30;99.90;;;;;;4957922;28;20218;-69
2024/01/17 12:26:44;;;;;;;6.40;4.10;;;23.30;99.90;;;;;;4958033;28;20627;-68
2024/01/17 12:29:14;;;;;;;11.10;7.30;;;23.30;99.90;;;;;;4957760;28;20203;-67
2024/01/17 12:31:41;;;;;;;7.80;5.97;;;23.40;99.90;;;;;;4966899;28;20258;-68
2024/01/17 12:34:10;;;;;;;7.57;5.70;;;23.40;99.90;;;;;;4974681;28;20562;-68
2024/01/17 12:36:38;;;;;;;13.70;6.53;;;23.40;99.90;;;;;;4963649;28;20183;-68
2024/01/17 12:39:08;;;;;;;13.67;7.60;;;23.30;99.90;;;;;;4977255;28;20688;-68
2024/01/17 12:41:36;;;;;;;11.70;6.70;;;23.30;99.90;;;;;;4975559;28;20644;-70
2024/01/17 12:44:07;;;;;;;10.03;5.67;;;23.30;99.90;;;;;;4975651;28;20586;-68
2024/01/17 12:46:35;;;;;;;10.57;5.70;;;23.30;99.90;;;;;;4977090;28;20183;-68
2024/01/17 12:49:03;;;;;;;11.47;5.03;;;23.30;99.90;;;;;;4977020;28;20659;-68
2024/01/17 12:51:31;;;;;;;12.47;6.00;;;23.20;99.90;;;;;;4975853;28;20194;-68
2024/01/17 12:53:59;;;;;;;12.40;6.57;;;23.20;99.90;;;;;;4976911;28;20556;-68
2024/01/17 12:56:27;;;;;;;17.27;6.00;;;23.10;99.90;;;;;;4976825;28;20186;-67
2024/01/17 12:58:54;;;;;;;12.77;5.50;;;23.10;99.90;;;;;;4976553;28;20190;-68
2024/01/17 13:01:25;;;;;;;10.13;4.87;;;23.10;99.90;;;;;;4971345;28;20211;-68
2024/01/17 13:04:05;;;;;;;6.10;3.97;;;23.10;99.90;;;;;;4957441;28;20720;-68
2024/01/17 13:06:46;;;;;;;12.37;4.27;;;23.10;99.90;;;;;;4963298;28;20699;-67
2024/01/17 13:09:19;;;;;;;7.00;4.30;;;23.00;99.90;;;;;;4976779;28;20178;-68
2024/01/17 13:11:51;;;;;;;6.37;3.97;;;23.00;99.90;;;;;;4969381;28;20238;-70
2024/01/17 13:14:26;;;;;;;5.97;3.67;;;22.90;99.90;;;;;;4957520;28;20223;-68
2024/01/17 13:16:54;;;;;;;7.50;4.27;;;23.00;99.90;;;;;;4959149;28;20211;-70
2024/01/17 13:19:22;;;;;;;8.40;3.57;;;22.90;99.90;;;;;;4960206;28;20517;-69
2024/01/17 13:21:49;;;;;;;6.90;3.23;;;23.00;99.90;;;;;;4968848;28;20221;-68
2024/01/17 13:24:19;;;;;;;4.83;3.00;;;22.90;99.90;;;;;;4975968;28;20214;-68
2024/01/17 13:26:46;;;;;;;10.77;3.43;;;22.90;99.90;;;;;;4976844;28;20171;-70
2024/01/17 13:29:14;;;;;;;5.10;3.07;;;22.90;99.90;;;;;;4976073;28;20187;-69
2024/01/17 13:31:41;;;;;;;3.57;2.67;;;23.00;99.90;;;;;;4959885;28;20180;-68
2024/01/17 13:34:09;;;;;;;5.90;2.93;;;23.00;99.90;;;;;;4957132;28;20258;-68